Time,TemperatureF,DewpointF,PressureIn,WindDirection,WindDirectionDegrees,WindSpeedMPH,WindSpeedGustMPH,Humidity,HourlyPrecipIn,Conditions,Clouds,dailyrainin,SoftwareType,DateUTC
2013-02-10 00:02:00,27.7,22.2,30.08,SSE,151,0.0,0.0,80,0.00,,---,0.00,VWS V14.01,2013-02-10 08:02:00,
2013-02-10 00:07:00,27.3,21.8,30.08,SSE,151,0.0,0.0,80,0.00,,---,0.00,VWS V14.01,2013-02-10 08:07:00,
2013-02-10 00:13:00,27.1,21.6,30.08,SSE,151,0.0,0.0,80,0.00,,---,0.00,VWS V14.01,2013-02-10 08:13:00,
2013-02-10 00:19:00,27.0,21.5,30.08,SSE,151,0.0,0.0,80,0.00,,---,0.00,VWS V14.01,2013-02-10 08:19:00,
2013-02-10 00:25:00,26.8,20.9,30.08,SSE,151,0.0,0.0,78,0.00,,---,0.00,VWS V14.01,2013-02-10 08:25:00,
2013-02-10 00:31:00,26.4,21.0,30.08,SSE,151,0.0,0.0,80,0.00,,---,0.00,VWS V14.01,2013-02-10 08:31:00,
2013-02-10 00:36:00,26.2,20.8,30.08,SSE,151,0.0,0.0,80,0.00,,---,0.00,VWS V14.01,2013-02-10 08:36:00,
2013-02-10 00:42:00,26.2,20.8,30.08,SSE,151,0.0,0.0,80,0.00,,---,0.00,VWS V14.01,2013-02-10 08:42:00,
2013-02-10 00:47:00,26.2,20.8,30.08,SSE,151,0.0,0.0,80,0.00,,---,0.00,VWS V14.01,2013-02-10 08:47:00,
2013-02-10 00:53:00,26.2,20.8,30.08,SSE,151,0.0,0.0,80,0.00,,---,0.00,VWS V14.01,2013-02-10 08:53:00,
2013-02-10 00:58:00,26.1,20.6,30.08,SSE,151,0.0,0.0,80,0.00,,---,0.00,VWS V14.01,2013-02-10 08:58:00,
2013-02-10 01:03:00,26.1,20.6,30.08,SSE,151,0.0,0.0,80,0.00,,---,0.00,VWS V14.01,2013-02-10 09:03:00,
2013-02-10 01:09:00,25.9,20.4,30.08,SSE,151,0.0,0.0,80,0.00,,---,0.00,VWS V14.01,2013-02-10 09:09:00,
2013-02-10 01:15:00,25.9,20.4,30.08,SSE,151,0.0,0.0,80,0.00,,---,0.00,VWS V14.01,2013-02-10 09:15:00,
2013-02-10 01:20:00,25.7,20.2,30.08,SSE,151,0.0,0.0,80,0.00,,---,0.00,VWS V14.01,2013-02-10 09:20:00,
2013-02-10 01:26:00,25.7,20.2,30.08,SSE,151,0.0,0.0,80,0.00,,---,0.00,VWS V14.01,2013-02-10 09:26:00,
2013-02-10 01:31:00,25.9,20.4,30.08,SSE,151,0.0,0.0,80,0.00,,---,0.00,VWS V14.01,2013-02-10 09:31:00,
2013-02-10 01:36:00,25.7,20.2,30.08,SSE,151,0.0,0.0,80,0.00,,---,0.00,VWS V14.01,2013-02-10 09:36:00,
2013-02-10 01:41:00,25.5,20.1,30.08,SSE,151,0.0,0.0,80,0.00,,---,0.00,VWS V14.01,2013-02-10 09:41:00,
2013-02-10 01:47:00,25.3,19.9,30.08,SSE,151,0.0,0.0,80,0.00,,---,0.00,VWS V14.01,2013-02-10 09:47:00,
2013-02-10 01:52:00,25.3,19.9,30.08,SSE,151,0.0,0.0,80,0.00,,---,0.00,VWS V14.01,2013-02-10 09:52:00,
2013-02-10 01:58:00,25.2,19.7,30.08,SSE,151,0.0,0.0,80,0.00,,---,0.00,VWS V14.01,2013-02-10 09:58:00,
2013-02-10 02:04:00,24.6,19.6,30.08,SSE,151,0.0,0.0,81,0.00,,---,0.00,VWS V14.01,2013-02-10 10:04:00,
2013-02-10 02:10:00,24.6,19.6,30.08,SSE,151,0.0,0.0,81,0.00,,---,0.00,VWS V14.01,2013-02-10 10:10:00,
2013-02-10 02:16:00,24.6,19.6,30.08,SSE,151,0.0,0.0,81,0.00,,---,0.00,VWS V14.01,2013-02-10 10:16:00,
2013-02-10 02:22:00,24.4,19.5,30.08,SSE,151,0.0,0.0,81,0.00,,---,0.00,VWS V14.01,2013-02-10 10:22:00,
2013-02-10 02:28:00,24.4,19.5,30.08,SSE,151,0.0,0.0,81,0.00,,---,0.00,VWS V14.01,2013-02-10 10:28:00,
2013-02-10 02:34:00,24.1,19.1,30.08,SSE,151,0.0,0.0,81,0.00,,---,0.00,VWS V14.01,2013-02-10 10:34:00,
2013-02-10 02:39:00,23.9,18.9,30.08,SSE,151,0.0,0.0,81,0.00,,---,0.00,VWS V14.01,2013-02-10 10:39:00,
2013-02-10 02:45:00,24.1,19.1,30.08,SSE,151,0.0,0.0,81,0.00,,---,0.00,VWS V14.01,2013-02-10 10:45:00,
2013-02-10 02:50:00,24.1,19.1,30.08,SSE,151,0.0,0.0,81,0.00,,---,0.00,VWS V14.01,2013-02-10 10:50:00,
2013-02-10 02:56:00,24.3,19.3,30.08,SSE,151,0.0,0.0,81,0.00,,---,0.00,VWS V14.01,2013-02-10 10:56:00,
2013-02-10 03:02:00,24.3,19.3,30.08,SSE,151,0.0,0.0,81,0.00,,---,0.00,VWS V14.01,2013-02-10 11:02:00,
2013-02-10 03:07:00,24.3,19.3,30.08,SSE,151,0.0,0.0,81,0.00,,---,0.00,VWS V14.01,2013-02-10 11:07:00,
2013-02-10 03:12:00,24.4,19.5,30.05,SSE,151,0.0,0.0,81,0.00,,---,0.00,VWS V14.01,2013-02-10 11:12:00,
2013-02-10 03:18:00,24.3,19.3,30.05,SSE,151,0.0,0.0,81,0.00,,---,0.00,VWS V14.01,2013-02-10 11:18:00,
2013-02-10 03:23:00,24.1,19.1,30.05,SSE,151,0.0,0.0,81,0.00,,---,0.00,VWS V14.01,2013-02-10 11:23:00,
2013-02-10 03:28:00,23.9,18.9,30.05,SSE,151,0.0,0.0,81,0.00,,---,0.00,VWS V14.01,2013-02-10 11:28:00,
2013-02-10 03:34:00,23.5,18.6,30.05,SSE,151,0.0,0.0,81,0.00,,---,0.00,VWS V14.01,2013-02-10 11:34:00,
2013-02-10 03:39:00,23.5,18.6,30.05,SSE,151,0.0,0.0,81,0.00,,---,0.00,VWS V14.01,2013-02-10 11:39:00,
2013-02-10 03:44:00,23.7,18.8,30.05,SSE,151,0.0,0.0,81,0.00,,---,0.00,VWS V14.01,2013-02-10 11:44:00,
2013-02-10 03:49:00,23.5,18.6,30.05,SSE,151,2.7,2.7,81,0.00,,---,0.00,VWS V14.01,2013-02-10 11:49:00,
2013-02-10 03:55:00,23.5,18.6,30.05,SSE,151,0.0,2.2,81,0.00,,---,0.00,VWS V14.01,2013-02-10 11:55:00,
2013-02-10 04:00:00,23.5,18.6,30.05,SSE,151,0.0,0.0,81,0.00,,---,0.00,VWS V14.01,2013-02-10 12:00:00,
2013-02-10 04:06:00,23.4,18.4,30.05,SSE,151,0.0,0.0,81,0.00,,---,0.00,VWS V14.01,2013-02-10 12:06:00,
2013-02-10 04:11:00,23.2,18.2,30.05,SSE,151,0.0,0.0,81,0.00,,---,0.00,VWS V14.01,2013-02-10 12:11:00,
2013-02-10 04:17:00,23.0,18.5,30.05,SSE,151,0.0,0.0,82,0.00,,---,0.00,VWS V14.01,2013-02-10 12:17:00,
2013-02-10 04:22:00,23.0,18.5,30.05,SSE,151,0.0,0.0,82,0.00,,---,0.00,VWS V14.01,2013-02-10 12:22:00,
2013-02-10 04:28:00,22.8,18.3,30.05,SSE,151,0.0,0.0,82,0.00,,---,0.00,VWS V14.01,2013-02-10 12:28:00,
2013-02-10 04:33:00,22.6,18.1,30.05,SSE,151,0.0,0.0,82,0.00,,---,0.00,VWS V14.01,2013-02-10 12:33:00,
2013-02-10 04:39:00,22.6,18.1,30.05,SSE,151,0.0,0.0,82,0.00,,---,0.00,VWS V14.01,2013-02-10 12:39:00,
2013-02-10 04:45:00,22.6,18.1,30.05,SSE,151,3.1,3.6,82,0.00,,---,0.00,VWS V14.01,2013-02-10 12:45:00,
2013-02-10 04:51:00,22.6,18.1,30.05,SSE,151,3.6,4.0,82,0.00,,---,0.00,VWS V14.01,2013-02-10 12:51:00,
2013-02-10 04:56:00,22.8,18.3,30.05,SSE,151,2.7,3.1,82,0.00,,---,0.00,VWS V14.01,2013-02-10 12:56:00,
2013-02-10 05:02:00,22.8,18.3,30.05,SSE,151,2.7,3.1,82,0.00,,---,0.00,VWS V14.01,2013-02-10 13:02:00,
2013-02-10 05:08:00,22.5,18.0,30.05,SSE,151,2.2,2.7,82,0.00,,---,0.00,VWS V14.01,2013-02-10 13:08:00,
2013-02-10 05:14:00,22.1,17.2,30.05,SSE,151,0.0,2.7,81,0.00,,---,0.00,VWS V14.01,2013-02-10 13:14:00,
2013-02-10 05:20:00,21.9,17.4,30.05,SSE,151,0.0,0.0,82,0.00,,---,0.00,VWS V14.01,2013-02-10 13:20:00,
2013-02-10 05:25:00,22.1,17.6,30.05,SSE,151,2.7,2.7,82,0.00,,---,0.00,VWS V14.01,2013-02-10 13:25:00,
2013-02-10 05:31:00,21.9,17.4,30.05,SSE,151,0.0,2.2,82,0.00,,---,0.00,VWS V14.01,2013-02-10 13:31:00,
2013-02-10 05:37:00,21.9,17.4,30.05,SSE,151,0.0,0.0,82,0.00,,---,0.00,VWS V14.01,2013-02-10 13:37:00,
2013-02-10 05:43:00,21.9,17.4,30.05,SSE,151,0.0,0.0,82,0.00,,---,0.00,VWS V14.01,2013-02-10 13:43:00,
2013-02-10 05:48:00,21.9,17.4,30.05,SSE,151,0.0,0.0,82,0.00,,---,0.00,VWS V14.01,2013-02-10 13:48:00,
2013-02-10 05:53:00,21.9,17.4,30.05,SSE,151,0.0,0.0,82,0.00,,---,0.00,VWS V14.01,2013-02-10 13:53:00,
2013-02-10 05:59:00,21.9,17.4,30.05,SSE,151,0.0,0.0,82,0.00,,---,0.00,VWS V14.01,2013-02-10 13:59:00,
2013-02-10 06:04:00,21.9,17.4,30.05,SSE,151,0.0,0.0,82,0.00,,---,0.00,VWS V14.01,2013-02-10 14:04:00,
2013-02-10 06:10:00,21.6,17.1,30.05,SSE,151,0.0,0.0,82,0.00,,---,0.00,VWS V14.01,2013-02-10 14:10:00,
2013-02-10 06:16:00,21.4,16.9,30.05,SSE,151,0.0,0.0,82,0.00,,---,0.00,VWS V14.01,2013-02-10 14:16:00,
2013-02-10 06:21:00,21.4,16.9,30.05,SSE,151,0.0,0.0,82,0.00,,---,0.00,VWS V14.01,2013-02-10 14:21:00,
2013-02-10 06:27:00,21.2,16.7,30.05,SSE,151,0.0,0.0,82,0.00,,---,0.00,VWS V14.01,2013-02-10 14:27:00,
2013-02-10 06:32:00,21.2,16.7,30.05,SSE,151,0.0,0.0,82,0.00,,---,0.00,VWS V14.01,2013-02-10 14:32:00,
2013-02-10 06:38:00,21.0,16.5,30.05,SSE,151,2.2,2.2,82,0.00,,---,0.00,VWS V14.01,2013-02-10 14:38:00,
2013-02-10 06:44:00,21.2,16.7,30.05,SSE,151,0.0,0.0,82,0.00,,---,0.00,VWS V14.01,2013-02-10 14:44:00,
2013-02-10 06:50:00,21.2,16.7,30.05,SSE,151,0.0,0.0,82,0.00,,---,0.00,VWS V14.01,2013-02-10 14:50:00,
2013-02-10 06:55:00,21.2,16.7,30.05,SSE,151,0.0,0.0,82,0.00,,---,0.00,VWS V14.01,2013-02-10 14:55:00,
2013-02-10 07:00:00,21.4,16.9,30.05,SSE,151,0.0,0.0,82,0.00,,---,0.00,VWS V14.01,2013-02-10 15:00:00,
2013-02-10 07:05:00,21.6,17.1,30.05,SSE,151,0.0,0.0,82,0.00,,---,0.00,VWS V14.01,2013-02-10 15:05:00,
2013-02-10 07:11:00,21.9,17.4,30.05,SSE,151,2.2,3.1,82,0.00,,---,0.00,VWS V14.01,2013-02-10 15:11:00,
2013-02-10 07:17:00,22.1,17.6,30.05,SSE,151,2.7,2.7,82,0.00,,---,0.00,VWS V14.01,2013-02-10 15:17:00,
2013-02-10 07:23:00,22.8,18.3,30.05,SSE,151,0.0,0.0,82,0.00,,---,0.00,VWS V14.01,2013-02-10 15:23:00,
2013-02-10 07:28:00,23.5,19.0,30.05,SSE,151,0.0,0.0,82,0.00,,---,0.00,VWS V14.01,2013-02-10 15:28:00,
2013-02-10 07:34:00,24.3,19.7,30.05,SSE,151,0.0,0.0,82,0.00,,---,0.00,VWS V14.01,2013-02-10 15:34:00,
2013-02-10 07:40:00,25.0,20.4,30.05,SSE,151,0.0,0.0,82,0.00,,---,0.00,VWS V14.01,2013-02-10 15:40:00,
2013-02-10 07:46:00,25.9,21.7,30.05,SSE,151,0.0,0.0,84,0.00,,---,0.00,VWS V14.01,2013-02-10 15:46:00,
2013-02-10 07:51:00,26.8,22.2,30.05,SSE,151,0.0,0.0,82,0.00,,---,0.00,VWS V14.01,2013-02-10 15:51:00,
2013-02-10 07:57:00,27.7,23.5,30.05,SSE,151,0.0,0.0,84,0.00,,---,0.00,VWS V14.01,2013-02-10 15:57:00,
2013-02-10 08:02:00,28.4,24.2,30.05,SSE,151,0.0,0.0,84,0.00,,---,0.00,VWS V14.01,2013-02-10 16:02:00,
2013-02-10 08:08:00,28.9,24.3,30.05,SSE,151,0.0,0.0,82,0.00,,---,0.00,VWS V14.01,2013-02-10 16:08:00,
2013-02-10 08:14:00,29.5,25.2,30.08,SSE,151,0.0,0.0,84,0.00,,---,0.00,VWS V14.01,2013-02-10 16:14:00,
2013-02-10 08:20:00,29.8,25.6,30.08,SSE,151,0.0,0.0,84,0.00,,---,0.00,VWS V14.01,2013-02-10 16:20:00,
2013-02-10 08:25:00,30.0,25.8,30.08,SSE,151,0.0,0.0,84,0.00,,---,0.00,VWS V14.01,2013-02-10 16:25:00,
2013-02-10 08:30:00,30.4,25.7,30.08,SSE,151,0.0,0.0,82,0.00,,---,0.00,VWS V14.01,2013-02-10 16:30:00,
2013-02-10 08:36:00,31.1,26.8,30.08,SSE,151,0.0,0.0,84,0.00,,---,0.00,VWS V14.01,2013-02-10 16:36:00,
2013-02-10 08:41:00,31.5,27.2,30.08,SSE,151,0.0,0.0,84,0.00,,---,0.00,VWS V14.01,2013-02-10 16:41:00,
2013-02-10 08:46:00,32.2,27.9,30.08,SSE,151,0.0,0.0,84,0.00,,---,0.00,VWS V14.01,2013-02-10 16:46:00,
2013-02-10 08:52:00,32.5,28.2,30.08,SSE,152,0.0,0.0,84,0.00,,---,0.00,VWS V14.01,2013-02-10 16:52:00,
2013-02-10 08:58:00,33.1,28.8,30.08,SSE,152,0.0,0.0,84,0.00,,---,0.00,VWS V14.01,2013-02-10 16:58:00,
2013-02-10 09:03:00,33.6,29.3,30.08,SSE,152,0.0,0.0,84,0.00,,---,0.00,VWS V14.01,2013-02-10 17:03:00,
2013-02-10 09:08:00,34.2,29.8,30.08,SSE,152,0.0,0.0,84,0.00,,---,0.00,VWS V14.01,2013-02-10 17:08:00,
2013-02-10 09:14:00,35.1,31.2,30.08,SSE,152,0.0,0.0,86,0.00,,---,0.00,VWS V14.01,2013-02-10 17:14:00,
2013-02-10 09:19:00,36.1,32.2,30.08,SSE,152,0.0,0.0,86,0.00,,---,0.00,VWS V14.01,2013-02-10 17:19:00,
2013-02-10 09:25:00,36.9,32.5,30.08,WSW,251,4.0,4.0,84,0.00,,---,0.00,VWS V14.01,2013-02-10 17:25:00,
2013-02-10 09:30:00,37.2,32.8,30.08,WSW,240,3.1,4.5,84,0.00,,---,0.00,VWS V14.01,2013-02-10 17:30:00,
2013-02-10 09:36:00,37.2,31.5,30.08,West,265,7.2,7.2,80,0.00,,---,0.00,VWS V14.01,2013-02-10 17:36:00,
2013-02-10 09:42:00,37.6,30.9,30.08,WSW,247,8.1,8.3,76,0.00,,---,0.00,VWS V14.01,2013-02-10 17:42:00,
2013-02-10 09:48:00,38.8,31.6,30.08,SW,229,4.0,8.7,75,0.00,,---,0.00,VWS V14.01,2013-02-10 17:48:00,
2013-02-10 09:53:00,39.9,31.6,30.08,WSW,243,5.8,8.3,72,0.00,,---,0.00,VWS V14.01,2013-02-10 17:53:00,
2013-02-10 09:59:00,39.9,30.6,30.08,WSW,251,8.1,10.5,69,0.00,,---,0.00,VWS V14.01,2013-02-10 17:59:00,
2013-02-10 10:04:00,39.6,29.7,30.08,SW,224,5.8,6.3,68,0.00,,---,0.00,VWS V14.01,2013-02-10 18:04:00,
2013-02-10 10:10:00,39.2,28.8,30.08,WSW,254,5.8,8.3,66,0.00,,---,0.00,VWS V14.01,2013-02-10 18:10:00,
2013-02-10 10:15:00,39.0,28.1,30.08,West,268,8.1,8.3,64,0.00,,---,0.00,VWS V14.01,2013-02-10 18:15:00,
2013-02-10 10:21:00,38.7,27.7,30.08,WSW,256,10.5,11.0,64,0.00,,---,0.00,VWS V14.01,2013-02-10 18:21:00,
2013-02-10 10:26:00,38.3,26.8,30.08,West,268,6.3,6.7,63,0.00,,---,0.00,VWS V14.01,2013-02-10 18:26:00,
2013-02-10 10:32:00,38.5,27.0,30.08,WNW,300,4.5,5.4,63,0.00,,---,0.00,VWS V14.01,2013-02-10 18:32:00,
2013-02-10 10:38:00,39.9,27.8,30.08,SW,217,8.7,8.7,62,0.00,,---,0.00,VWS V14.01,2013-02-10 18:38:00,
2013-02-10 10:43:00,41.2,28.4,30.08,SW,217,7.6,10.5,60,0.00,,---,0.00,VWS V14.01,2013-02-10 18:43:00,
2013-02-10 10:48:00,41.2,27.8,30.08,WSW,250,5.4,8.1,58,0.00,,---,0.00,VWS V14.01,2013-02-10 18:48:00,
2013-02-10 10:53:00,40.6,27.2,30.08,WSW,255,6.3,10.5,58,0.00,,---,0.00,VWS V14.01,2013-02-10 18:53:00,
2013-02-10 10:58:00,40.5,27.1,30.05,SW,231,8.1,10.5,58,0.00,,---,0.00,VWS V14.01,2013-02-10 18:58:00,
2013-02-10 11:04:00,40.6,27.2,30.05,West,263,7.6,8.3,58,0.00,,---,0.00,VWS V14.01,2013-02-10 19:04:00,
2013-02-10 11:10:00,41.0,27.0,30.08,WSW,257,8.1,8.7,57,0.00,,---,0.00,VWS V14.01,2013-02-10 19:10:00,
2013-02-10 11:15:00,41.5,27.5,30.08,SW,231,8.3,8.3,57,0.00,,---,0.00,VWS V14.01,2013-02-10 19:15:00,
2013-02-10 11:21:00,41.9,27.1,30.08,West,268,6.3,6.7,56,0.00,,---,0.00,VWS V14.01,2013-02-10 19:21:00,
2013-02-10 11:26:00,41.5,26.1,30.08,WSW,258,7.6,7.6,54,0.00,,---,0.00,VWS V14.01,2013-02-10 19:26:00,
2013-02-10 11:32:00,41.5,25.5,30.08,WNW,288,4.9,6.7,52,0.00,,---,0.00,VWS V14.01,2013-02-10 19:32:00,
2013-02-10 11:37:00,41.4,24.6,30.08,WNW,298,5.8,7.6,51,0.00,,---,0.00,VWS V14.01,2013-02-10 19:37:00,
2013-02-10 11:43:00,40.5,24.5,30.05,NW,314,5.4,6.3,52,0.00,,---,0.00,VWS V14.01,2013-02-10 19:43:00,
2013-02-10 11:48:00,40.3,24.3,30.05,NW,313,5.4,6.3,52,0.00,,---,0.00,VWS V14.01,2013-02-10 19:48:00,
2013-02-10 11:54:00,39.7,23.8,30.05,WNW,299,3.1,4.0,52,0.00,,---,0.00,VWS V14.01,2013-02-10 19:54:00,
2013-02-10 11:59:00,39.7,24.5,30.05,NW,315,8.3,8.3,54,0.00,,---,0.00,VWS V14.01,2013-02-10 19:59:00,
2013-02-10 12:05:00,39.6,24.3,30.05,WNW,298,8.3,8.7,54,0.00,,---,0.00,VWS V14.01,2013-02-10 20:05:00,
2013-02-10 12:10:00,39.6,24.3,30.05,NW,318,8.1,8.7,54,0.00,,---,0.00,VWS V14.01,2013-02-10 20:10:00,
2013-02-10 12:16:00,39.7,24.5,30.05,West,276,5.8,6.3,54,0.00,,---,0.00,VWS V14.01,2013-02-10 20:16:00,
2013-02-10 12:21:00,39.7,23.8,30.05,NW,317,8.3,11.0,52,0.00,,---,0.00,VWS V14.01,2013-02-10 20:21:00,
2013-02-10 12:26:00,39.7,23.8,30.05,WNW,303,6.3,8.7,52,0.00,,---,0.00,VWS V14.01,2013-02-10 20:26:00,
2013-02-10 12:32:00,40.1,24.1,30.05,NW,304,5.4,8.1,52,0.00,,---,0.00,VWS V14.01,2013-02-10 20:32:00,
2013-02-10 12:37:00,40.3,23.6,30.05,NW,304,4.0,6.3,51,0.00,,---,0.00,VWS V14.01,2013-02-10 20:37:00,
2013-02-10 12:43:00,40.5,23.8,30.05,West,281,8.3,8.3,51,0.00,,---,0.00,VWS V14.01,2013-02-10 20:43:00,
2013-02-10 12:49:00,40.5,23.8,30.05,WNW,296,8.3,8.3,51,0.00,,---,0.00,VWS V14.01,2013-02-10 20:49:00,
2013-02-10 12:55:00,40.6,24.6,30.02,WNW,298,5.8,6.3,52,0.00,,---,0.00,VWS V14.01,2013-02-10 20:55:00,
2013-02-10 13:00:00,40.5,24.5,30.02,WNW,291,7.6,8.3,52,0.00,,---,0.00,VWS V14.01,2013-02-10 21:00:00,
2013-02-10 13:06:00,40.6,24.6,30.02,WSW,254,5.8,8.7,52,0.00,,---,0.00,VWS V14.01,2013-02-10 21:06:00,
2013-02-10 13:11:00,40.6,24.6,30.02,West,264,8.1,8.7,52,0.00,,---,0.00,VWS V14.01,2013-02-10 21:11:00,
2013-02-10 13:17:00,40.6,24.6,30.02,West,281,7.6,7.6,52,0.00,,---,0.00,VWS V14.01,2013-02-10 21:17:00,
2013-02-10 13:22:00,40.6,24.6,30.02,West,270,5.4,8.3,52,0.00,,---,0.00,VWS V14.01,2013-02-10 21:22:00,
2013-02-10 13:27:00,40.8,24.8,30.02,West,259,8.7,8.7,52,0.00,,---,0.00,VWS V14.01,2013-02-10 21:27:00,
2013-02-10 13:33:00,41.0,24.3,30.02,WNW,300,5.4,8.1,51,0.00,,---,0.00,VWS V14.01,2013-02-10 21:33:00,
2013-02-10 13:38:00,41.0,25.0,30.02,NW,321,6.3,10.5,52,0.00,,---,0.00,VWS V14.01,2013-02-10 21:38:00,
2013-02-10 13:44:00,41.0,25.0,30.02,West,275,6.7,7.2,52,0.00,,---,0.00,VWS V14.01,2013-02-10 21:44:00,
2013-02-10 13:49:00,40.8,24.8,30.02,West,260,5.4,6.3,52,0.00,,---,0.00,VWS V14.01,2013-02-10 21:49:00,
2013-02-10 13:55:00,40.8,24.8,30.02,NW,307,6.3,8.1,52,0.00,,---,0.00,VWS V14.01,2013-02-10 21:55:00,
2013-02-10 14:01:00,40.6,25.3,30.02,WNW,300,5.4,8.1,54,0.00,,---,0.00,VWS V14.01,2013-02-10 22:01:00,
2013-02-10 14:06:00,40.6,25.3,30.02,NNW,330,6.3,8.3,54,0.00,,---,0.00,VWS V14.01,2013-02-10 22:06:00,
2013-02-10 14:13:00,40.8,25.5,30.02,WSW,258,3.6,8.7,54,0.00,,---,0.00,VWS V14.01,2013-02-10 22:13:00,
2013-02-10 14:18:00,41.0,25.6,30.02,WNW,298,7.6,7.6,54,0.00,,---,0.00,VWS V14.01,2013-02-10 22:18:00,
2013-02-10 14:24:00,41.0,25.6,30.02,WNW,301,4.0,6.3,54,0.00,,---,0.00,VWS V14.01,2013-02-10 22:24:00,
2013-02-10 14:29:00,40.8,25.5,30.02,NW,322,8.7,8.7,54,0.00,,---,0.00,VWS V14.01,2013-02-10 22:29:00,
2013-02-10 14:35:00,41.0,26.3,30.02,WNW,293,5.4,8.1,56,0.00,,---,0.00,VWS V14.01,2013-02-10 22:35:00,
2013-02-10 14:40:00,40.8,26.1,30.02,West,275,5.8,5.8,56,0.00,,---,0.00,VWS V14.01,2013-02-10 22:40:00,
2013-02-10 14:46:00,41.0,25.6,30.02,NW,317,8.3,8.3,54,0.00,,---,0.00,VWS V14.01,2013-02-10 22:46:00,
2013-02-10 14:51:00,41.2,25.8,30.02,West,267,8.3,8.3,54,0.00,,---,0.00,VWS V14.01,2013-02-10 22:51:00,
2013-02-10 14:57:00,41.4,26.6,30.02,West,279,6.3,6.3,56,0.00,,---,0.00,VWS V14.01,2013-02-10 22:57:00,
2013-02-10 15:02:00,41.4,26.6,30.02,NW,321,7.6,8.3,56,0.00,,---,0.00,VWS V14.01,2013-02-10 23:02:00,
2013-02-10 15:08:00,41.2,26.5,30.02,NW,322,6.3,8.7,56,0.00,,---,0.00,VWS V14.01,2013-02-10 23:08:00,
2013-02-10 15:13:00,41.0,27.0,30.02,NW,309,5.4,6.3,57,0.00,,---,0.00,VWS V14.01,2013-02-10 23:13:00,
2013-02-10 15:18:00,41.4,27.3,30.02,NNW,331,4.9,5.8,57,0.00,,---,0.00,VWS V14.01,2013-02-10 23:18:00,
2013-02-10 15:24:00,41.4,26.6,30.02,NNW,330,7.6,7.6,56,0.00,,---,0.00,VWS V14.01,2013-02-10 23:24:00,
2013-02-10 15:30:00,41.2,26.5,30.02,NNW,331,7.6,7.6,56,0.00,,---,0.00,VWS V14.01,2013-02-10 23:30:00,
2013-02-10 15:36:00,41.2,25.8,30.02,WNW,301,2.7,4.0,54,0.00,,---,0.00,VWS V14.01,2013-02-10 23:36:00,
2013-02-10 15:41:00,41.2,25.8,30.02,WNW,290,2.7,5.4,54,0.00,,---,0.00,VWS V14.01,2013-02-10 23:41:00,
2013-02-10 15:46:00,41.2,25.8,30.02,NW,322,2.7,2.7,54,0.00,,---,0.00,VWS V14.01,2013-02-10 23:46:00,
2013-02-10 15:51:00,41.2,25.8,30.02,NW,306,3.6,3.6,54,0.00,,---,0.00,VWS V14.01,2013-02-10 23:51:00,
2013-02-10 15:57:00,41.0,25.6,30.02,NNW,334,3.1,4.5,54,0.00,,---,0.00,VWS V14.01,2013-02-10 23:57:00,
2013-02-10 16:03:00,41.2,25.8,30.02,WNW,289,5.8,6.3,54,0.00,,---,0.00,VWS V14.01,2013-02-11 00:03:00,
2013-02-10 16:08:00,41.0,25.0,30.02,NW,318,4.0,4.0,52,0.00,,---,0.00,VWS V14.01,2013-02-11 00:08:00,
2013-02-10 16:14:00,41.5,25.5,30.02,NW,321,5.8,6.7,52,0.00,,---,0.00,VWS V14.01,2013-02-11 00:14:00,
2013-02-10 16:19:00,41.2,25.1,30.02,NNW,332,8.3,8.3,52,0.00,,---,0.00,VWS V14.01,2013-02-11 00:19:00,
2013-02-10 16:24:00,41.0,25.0,30.02,NNW,331,5.8,5.8,52,0.00,,---,0.00,VWS V14.01,2013-02-11 00:24:00,
2013-02-10 16:30:00,40.8,24.8,30.02,NW,316,5.4,6.3,52,0.00,,---,0.00,VWS V14.01,2013-02-11 00:30:00,
2013-02-10 16:36:00,40.8,24.8,30.02,WSW,256,5.4,6.3,52,0.00,,---,0.00,VWS V14.01,2013-02-11 00:36:00,
2013-02-10 16:42:00,41.0,26.3,30.02,WSW,247,4.9,7.2,56,0.00,,---,0.00,VWS V14.01,2013-02-11 00:42:00,
2013-02-10 16:47:00,41.0,27.0,30.02,WSW,254,7.2,7.2,57,0.00,,---,0.00,VWS V14.01,2013-02-11 00:47:00,
2013-02-10 16:52:00,40.6,27.2,30.02,WSW,239,6.3,7.6,58,0.00,,---,0.00,VWS V14.01,2013-02-11 00:52:00,
2013-02-10 16:58:00,40.3,26.9,30.02,WSW,241,5.4,5.8,58,0.00,,---,0.00,VWS V14.01,2013-02-11 00:58:00,
2013-02-10 17:03:00,40.1,26.7,30.02,SW,233,6.3,6.3,58,0.00,,---,0.00,VWS V14.01,2013-02-11 01:03:00,
2013-02-10 17:09:00,39.9,27.2,30.02,SW,229,4.9,6.3,60,0.00,,---,0.00,VWS V14.01,2013-02-11 01:09:00,
2013-02-10 17:15:00,39.6,26.8,30.02,SW,232,8.3,8.3,60,0.00,,---,0.00,VWS V14.01,2013-02-11 01:15:00,
2013-02-10 17:21:00,39.2,26.5,30.02,WSW,238,7.6,7.6,60,0.00,,---,0.00,VWS V14.01,2013-02-11 01:21:00,
2013-02-10 17:26:00,39.0,26.9,30.02,WSW,244,5.8,5.8,62,0.00,,---,0.00,VWS V14.01,2013-02-11 01:26:00,
2013-02-10 17:32:00,38.7,26.6,30.02,SW,231,6.7,7.6,62,0.00,,---,0.00,VWS V14.01,2013-02-11 01:32:00,
2013-02-10 17:38:00,38.5,27.0,30.02,SW,236,7.6,8.1,63,0.00,,---,0.00,VWS V14.01,2013-02-11 01:38:00,
2013-02-10 17:44:00,38.3,27.4,30.02,WSW,254,7.6,8.3,64,0.00,,---,0.00,VWS V14.01,2013-02-11 01:44:00,
2013-02-10 17:49:00,38.3,28.0,30.02,WSW,247,8.7,9.6,66,0.00,,---,0.00,VWS V14.01,2013-02-11 01:49:00,
2013-02-10 17:54:00,38.1,27.8,30.02,WSW,255,6.3,8.3,66,0.00,,---,0.00,VWS V14.01,2013-02-11 01:54:00,
2013-02-10 18:00:00,38.1,28.9,30.02,West,271,5.4,6.3,69,0.00,,---,0.00,VWS V14.01,2013-02-11 02:00:00,
2013-02-10 18:05:00,37.8,29.0,30.02,West,262,9.6,9.6,70,0.00,,---,0.00,VWS V14.01,2013-02-11 02:05:00,
2013-02-10 18:10:00,37.6,29.4,30.02,West,260,8.1,10.1,72,0.00,,---,0.00,VWS V14.01,2013-02-11 02:10:00,
2013-02-10 18:16:00,37.6,29.9,30.02,WSW,257,7.2,7.6,74,0.00,,---,0.00,VWS V14.01,2013-02-11 02:16:00,
2013-02-10 18:22:00,37.6,30.4,30.02,WSW,255,8.3,10.5,75,0.00,,---,0.00,VWS V14.01,2013-02-11 02:22:00,
2013-02-10 18:27:00,37.6,30.9,30.02,West,280,7.6,8.7,76,0.00,,---,0.00,VWS V14.01,2013-02-11 02:27:00,
2013-02-10 18:32:00,37.2,31.9,30.02,NW,319,7.6,8.1,81,0.00,,---,0.00,VWS V14.01,2013-02-11 02:32:00,
2013-02-10 18:38:00,36.9,32.0,30.02,NW,324,8.1,8.7,82,0.00,,---,0.00,VWS V14.01,2013-02-11 02:38:00,
2013-02-10 18:43:00,36.9,32.9,30.02,WNW,303,5.4,6.3,86,0.00,,---,0.00,VWS V14.01,2013-02-11 02:43:00,
2013-02-10 18:49:00,36.7,33.2,30.02,NW,314,5.4,6.3,87,0.00,,---,0.00,VWS V14.01,2013-02-11 02:49:00,
2013-02-10 18:55:00,36.5,32.6,30.02,NW,313,5.8,8.3,86,0.00,,---,0.00,VWS V14.01,2013-02-11 02:55:00,
2013-02-10 19:00:00,36.7,33.2,30.02,NW,313,8.7,8.7,87,0.00,,---,0.00,VWS V14.01,2013-02-11 03:00:00,
2013-02-10 19:06:00,36.5,33.4,30.02,NNW,337,5.8,6.3,88,0.00,,---,0.00,VWS V14.01,2013-02-11 03:06:00,
2013-02-10 19:11:00,36.5,33.8,30.02,NW,320,7.6,7.6,90,0.00,,---,0.00,VWS V14.01,2013-02-11 03:11:00,
2013-02-10 19:17:00,36.3,34.1,30.02,NW,306,6.3,6.3,92,0.00,,---,0.00,VWS V14.01,2013-02-11 03:17:00,
2013-02-10 19:22:00,36.3,34.5,30.02,NW,323,4.9,5.8,93,0.00,,---,0.00,VWS V14.01,2013-02-11 03:22:00,
2013-02-10 19:28:00,36.3,34.5,30.02,WNW,302,2.7,4.0,93,0.00,,---,0.00,VWS V14.01,2013-02-11 03:28:00,
2013-02-10 19:33:00,36.3,34.5,30.02,WNW,286,3.6,4.9,93,0.00,,---,0.00,VWS V14.01,2013-02-11 03:33:00,
2013-02-10 19:39:00,36.3,34.5,30.02,WNW,287,6.3,7.2,93,0.00,,---,0.00,VWS V14.01,2013-02-11 03:39:00,
2013-02-10 19:45:00,36.1,34.3,30.02,WNW,297,3.6,6.3,93,0.00,,---,0.00,VWS V14.01,2013-02-11 03:45:00,
2013-02-10 19:50:00,36.1,34.3,30.02,West,274,5.4,5.4,93,0.00,,---,0.00,VWS V14.01,2013-02-11 03:50:00,
2013-02-10 19:56:00,36.1,34.3,30.02,NW,307,5.4,5.4,93,0.00,,---,0.00,VWS V14.01,2013-02-11 03:56:00,
2013-02-10 20:02:00,36.1,34.3,30.02,NW,315,5.8,7.6,93,0.00,,---,0.00,VWS V14.01,2013-02-11 04:02:00,
2013-02-10 20:07:00,36.0,34.5,30.02,NW,313,4.0,5.4,94,0.00,,---,0.00,VWS V14.01,2013-02-11 04:07:00,
2013-02-10 20:13:00,36.0,34.5,30.05,WNW,283,0.0,0.0,94,0.00,,---,0.00,VWS V14.01,2013-02-11 04:13:00,
2013-02-10 20:18:00,35.6,34.2,30.05,WNW,283,0.0,0.0,94,0.00,,---,0.00,VWS V14.01,2013-02-11 04:18:00,
2013-02-10 20:24:00,35.4,34.0,30.05,WSW,250,4.0,5.4,94,0.00,,---,0.00,VWS V14.01,2013-02-11 04:24:00,
2013-02-10 20:30:00,35.4,34.0,30.05,West,263,4.0,4.5,94,0.00,,---,0.00,VWS V14.01,2013-02-11 04:30:00,
2013-02-10 20:35:00,35.2,33.8,30.05,WNW,282,3.1,3.1,94,0.00,,---,0.00,VWS V14.01,2013-02-11 04:35:00,
2013-02-10 20:40:00,35.4,34.0,30.05,West,280,2.2,3.6,94,0.00,,---,0.00,VWS V14.01,2013-02-11 04:40:00,
2013-02-10 20:46:00,35.4,34.0,30.05,WSW,258,4.0,4.0,94,0.00,,---,0.00,VWS V14.01,2013-02-11 04:46:00,
2013-02-10 20:51:00,35.6,34.2,30.05,NNW,331,3.6,4.9,94,0.00,,---,0.00,VWS V14.01,2013-02-11 04:51:00,
2013-02-10 20:56:00,35.6,34.6,30.05,NW,323,3.6,3.6,96,0.00,,---,0.00,VWS V14.01,2013-02-11 04:56:00,
2013-02-10 21:00:00,35.6,34.6,30.05,NW,308,2.7,4.0,96,0.00,,---,0.00,VWS V14.01,2013-02-11 05:00:00,
2013-02-10 21:01:00,35.6,34.6,30.05,NW,304,3.6,3.6,96,0.00,,---,0.00,VWS V14.01,2013-02-11 05:01:00,
2013-02-10 21:03:00,35.6,34.6,30.05,NW,310,2.7,2.7,96,0.00,,---,0.00,VWS V14.01,2013-02-11 05:03:00,
2013-02-10 21:08:00,35.6,34.6,30.05,NW,320,0.0,0.0,96,0.00,,---,0.00,VWS V14.01,2013-02-11 05:08:00,
2013-02-10 21:10:00,35.6,34.6,30.05,NW,322,0.0,0.0,96,0.00,,---,0.00,VWS V14.01,2013-02-11 05:10:00,
2013-02-10 21:16:00,35.6,34.6,30.05,SSE,151,3.1,3.6,96,0.00,,---,0.00,VWS V14.01,2013-02-11 05:16:00,
2013-02-10 21:21:00,35.6,34.6,30.05,ESE,106,2.2,2.7,96,0.00,,---,0.00,VWS V14.01,2013-02-11 05:21:00,
2013-02-10 21:27:00,35.6,34.6,30.05,ESE,106,0.0,0.0,96,0.00,,---,0.00,VWS V14.01,2013-02-11 05:27:00,
2013-02-10 21:33:00,35.6,34.6,30.05,ESE,106,0.0,0.0,96,0.00,,---,0.00,VWS V14.01,2013-02-11 05:33:00,
2013-02-10 21:39:00,35.6,34.6,30.05,NW,313,5.4,5.8,96,0.00,,---,0.00,VWS V14.01,2013-02-11 05:39:00,
2013-02-10 21:44:00,35.8,35.1,30.05,NW,304,3.6,5.4,98,0.00,,---,0.00,VWS V14.01,2013-02-11 05:44:00,
2013-02-10 21:50:00,35.8,35.1,30.05,NW,312,2.7,4.0,98,0.00,,---,0.00,VWS V14.01,2013-02-11 05:50:00,
2013-02-10 21:56:00,35.6,35.0,30.05,WNW,294,0.0,3.6,98,0.00,,---,0.00,VWS V14.01,2013-02-11 05:56:00,
2013-02-10 22:02:00,35.6,35.0,30.05,WNW,283,3.6,3.6,98,0.00,,---,0.00,VWS V14.01,2013-02-11 06:02:00,
2013-02-10 22:07:00,35.6,35.0,30.05,NW,309,4.0,5.8,98,0.00,,---,0.00,VWS V14.01,2013-02-11 06:07:00,
2013-02-10 22:13:00,35.6,35.0,30.05,WNW,295,4.0,4.0,98,0.00,,---,0.00,VWS V14.01,2013-02-11 06:13:00,
2013-02-10 22:18:00,35.6,35.0,30.05,NW,309,2.7,2.7,98,0.00,,---,0.00,VWS V14.01,2013-02-11 06:18:00,
2013-02-10 22:24:00,35.6,35.3,30.05,NW,308,3.1,3.1,99,0.00,,---,0.00,VWS V14.01,2013-02-11 06:24:00,
2013-02-10 22:29:00,35.6,35.3,30.05,NNW,345,2.7,2.7,99,0.00,,---,0.00,VWS V14.01,2013-02-11 06:29:00,
2013-02-10 22:34:00,35.6,35.6,30.05,NNW,342,4.0,4.0,100,0.00,,---,0.00,VWS V14.01,2013-02-11 06:34:00,
2013-02-10 22:39:00,35.6,35.6,30.05,NNW,339,4.0,4.0,100,0.00,,---,0.00,VWS V14.01,2013-02-11 06:39:00,
2013-02-10 22:45:00,35.6,35.6,30.05,NNW,341,5.4,5.4,100,0.00,,---,0.00,VWS V14.01,2013-02-11 06:45:00,
2013-02-10 22:50:00,35.4,35.2,30.05,NNW,346,5.8,5.8,99,0.00,,---,0.00,VWS V14.01,2013-02-11 06:50:00,
2013-02-10 22:55:00,35.6,34.2,30.05,North,350,4.0,5.4,94,0.00,,---,0.00,VWS V14.01,2013-02-11 06:55:00,
2013-02-10 23:01:00,35.6,33.4,30.05,NNW,333,4.9,4.9,92,0.00,,---,0.00,VWS V14.01,2013-02-11 07:01:00,
2013-02-10 23:06:00,35.6,32.5,30.05,NNW,328,2.7,3.6,88,0.00,,---,0.00,VWS V14.01,2013-02-11 07:06:00,
2013-02-10 23:12:00,35.6,32.1,30.05,NNW,344,2.7,2.7,87,0.00,,---,0.00,VWS V14.01,2013-02-11 07:12:00,
2013-02-10 23:17:00,35.6,32.1,30.05,NNW,344,0.0,0.0,87,0.00,,---,0.00,VWS V14.01,2013-02-11 07:17:00,
2013-02-10 23:22:00,35.1,31.6,30.05,ESE,112,0.0,0.0,87,0.00,,---,0.00,VWS V14.01,2013-02-11 07:22:00,
2013-02-10 23:28:00,34.7,30.8,30.05,ESE,112,0.0,0.0,86,0.00,,---,0.00,VWS V14.01,2013-02-11 07:28:00,
2013-02-10 23:33:00,34.2,30.3,30.05,East,81,0.0,0.0,86,0.00,,---,0.00,VWS V14.01,2013-02-11 07:33:00,
2013-02-10 23:39:00,33.6,29.7,30.05,ESE,103,0.0,0.0,86,0.00,,---,0.00,VWS V14.01,2013-02-11 07:39:00,
2013-02-10 23:45:00,33.3,29.4,30.05,ESE,104,0.0,0.0,86,0.00,,---,0.00,VWS V14.01,2013-02-11 07:45:00,
2013-02-10 23:50:00,33.3,29.4,30.05,ESE,115,0.0,0.0,86,0.00,,---,0.00,VWS V14.01,2013-02-11 07:50:00,
2013-02-10 23:56:00,32.7,28.9,30.05,ESE,115,0.0,0.0,86,0.00,,---,0.00,VWS V14.01,2013-02-11 07:56:00,